Terminal Aerodrome Forecast
Issued by NWS

Home | Current Version | Previous Version | Text Only | Print | Product List | Glossary On
Versions: 1 2 3 4 5 6 7 8 9 10 11 12 13 14 15 16 17 18 19
000
FTUS43 KICT 011134
TAFHUT
TAF
KHUT 011134Z 0112/0212 23011KT P6SM SCT100 BKN200
     FM011500 23017G24KT P6SM SCT100 BKN200
     FM012200 26014KT P6SM SCT100
     FM020000 36011KT P6SM SCT100=

USA.gov is the U.S. government's official web portal to all federal, state and local government web resources and services.